createdAt,value
2022-09-06T00:01:06.736Z,1.90
2022-09-06T00:02:38.298Z,1.80
2022-09-06T00:04:14.996Z,1.88
2022-09-06T00:05:46.913Z,1.79
2022-09-06T00:07:23.403Z,1.84
2022-09-06T00:08:54.854Z,2.00
2022-09-06T00:10:26.441Z,1.90
2022-09-06T00:11:58.021Z,1.87
2022-09-06T00:13:29.421Z,2.20
2022-09-06T00:15:01.085Z,1.89
2022-09-06T00:16:32.599Z,1.94
2022-09-06T00:18:04.306Z,1.89
2022-09-06T00:19:35.750Z,2.06
2022-09-06T00:21:07.284Z,2.11
2022-09-06T00:22:38.745Z,1.81
2022-09-06T00:24:10.179Z,1.99
2022-09-06T00:25:41.600Z,1.93
2022-09-06T00:27:13.127Z,1.82
2022-09-06T00:28:44.554Z,1.91
2022-09-06T00:30:16.099Z,2.14
2022-09-06T00:31:47.520Z,2.11
2022-09-06T00:33:18.975Z,2.02
2022-09-06T00:34:50.457Z,1.73
2022-09-06T00:36:22.050Z,1.87
2022-09-06T00:37:53.998Z,2.08
2022-09-06T00:39:25.446Z,1.86
2022-09-06T00:40:56.897Z,2.10
2022-09-06T00:42:28.352Z,2.05
2022-09-06T00:43:59.745Z,1.92
2022-09-06T00:45:31.431Z,1.79
2022-09-06T00:47:02.814Z,1.73
2022-09-06T00:48:34.463Z,1.88
2022-09-06T00:50:05.903Z,1.80
2022-09-06T00:51:37.318Z,2.19
2022-09-06T00:53:08.783Z,1.98
2022-09-06T00:54:40.183Z,1.89
2022-09-06T00:56:11.638Z,2.10
2022-09-06T00:57:43.042Z,1.76
2022-09-06T00:59:14.503Z,1.90
2022-09-06T01:00:45.931Z,1.90
2022-09-06T01:02:17.647Z,2.02
2022-09-06T01:03:49.455Z,1.85
2022-09-06T01:05:20.856Z,1.82
2022-09-06T01:06:52.720Z,1.92
2022-09-06T01:08:24.126Z,2.13
2022-09-06T01:09:55.553Z,2.02
2022-09-06T01:11:26.954Z,1.74
2022-09-06T01:12:58.748Z,2.03
2022-09-06T01:14:30.119Z,1.77
2022-09-06T01:16:01.502Z,1.78
2022-09-06T01:17:32.969Z,1.75
2022-09-06T01:19:04.331Z,1.89
2022-09-06T01:20:35.854Z,1.69
2022-09-06T01:22:07.347Z,1.79
2022-09-06T01:23:38.802Z,1.78
2022-09-06T01:25:10.171Z,1.66
2022-09-06T01:26:41.581Z,1.88
2022-09-06T01:28:12.931Z,1.94
2022-09-06T01:29:44.344Z,2.32
2022-09-06T01:31:15.976Z,2.13
2022-09-06T01:32:47.401Z,2.30
2022-09-06T01:34:18.751Z,2.20
2022-09-06T01:35:50.252Z,2.45
2022-09-06T01:37:21.605Z,2.47
2022-09-06T01:38:52.985Z,2.49
2022-09-06T01:40:24.372Z,2.53
2022-09-06T01:41:55.723Z,2.42
2022-09-06T01:43:28.250Z,2.79
2022-09-06T01:44:59.643Z,2.67
2022-09-06T01:46:31.319Z,2.65
2022-09-06T01:48:03.019Z,2.86
2022-09-06T01:49:34.395Z,3.05
2022-09-06T01:51:05.812Z,2.77
2022-09-06T01:52:37.288Z,2.55
2022-09-06T01:54:08.702Z,2.61
2022-09-06T01:55:40.120Z,2.35
2022-09-06T01:57:12.573Z,2.49
2022-09-06T01:58:44.384Z,2.26
2022-09-06T02:00:15.902Z,2.42
2022-09-06T02:01:47.401Z,2.27
2022-09-06T02:03:18.833Z,2.21
2022-09-06T02:04:50.309Z,2.31
2022-09-06T02:06:21.793Z,2.35
2022-09-06T02:07:53.465Z,2.08
2022-09-06T02:09:24.932Z,2.01
2022-09-06T02:10:56.418Z,1.87
2022-09-06T02:12:28.070Z,2.07
2022-09-06T02:13:59.455Z,1.86
2022-09-06T02:15:30.865Z,1.94
2022-09-06T02:17:02.364Z,2.00
2022-09-06T02:18:33.841Z,1.92
2022-09-06T02:20:05.188Z,1.86
2022-09-06T02:21:36.615Z,2.07
2022-09-06T02:23:07.978Z,1.87
2022-09-06T02:24:39.490Z,2.07
2022-09-06T02:26:10.941Z,1.95
2022-09-06T02:27:42.362Z,2.12
2022-09-06T02:29:13.933Z,2.06
2022-09-06T02:30:45.371Z,2.02
2022-09-06T02:32:16.807Z,2.02
2022-09-06T02:33:48.196Z,2.31
2022-09-06T02:35:19.699Z,2.27
2022-09-06T02:36:51.173Z,2.25
2022-09-06T02:38:22.793Z,2.23
2022-09-06T02:39:54.377Z,2.37
2022-09-06T02:41:25.781Z,2.38
2022-09-06T02:42:57.167Z,2.41
2022-09-06T02:44:28.574Z,2.54
2022-09-06T02:46:00.030Z,2.74
2022-09-06T02:47:31.583Z,2.57
2022-09-06T02:49:03.024Z,2.86
2022-09-06T02:50:34.434Z,2.56
2022-09-06T02:52:05.809Z,2.61
2022-09-06T02:53:37.300Z,2.61
2022-09-06T02:55:08.652Z,2.77
2022-09-06T02:56:40.201Z,2.86
2022-09-06T02:58:11.709Z,2.93
2022-09-06T02:59:43.123Z,2.91
2022-09-06T03:01:14.683Z,3.04
2022-09-06T03:02:46.260Z,2.97
2022-09-06T03:04:17.695Z,2.83
2022-09-06T03:05:49.103Z,3.14
2022-09-06T03:07:20.643Z,3.46
2022-09-06T03:08:52.115Z,2.89
2022-09-06T03:10:23.566Z,2.92
2022-09-06T03:11:55.138Z,3.12
2022-09-06T03:13:26.623Z,3.08
2022-09-06T03:14:58.051Z,2.89
2022-09-06T03:16:29.704Z,3.40
2022-09-06T03:18:01.130Z,3.21
2022-09-06T03:19:32.736Z,3.10
2022-09-06T03:21:04.172Z,3.16
2022-09-06T03:22:35.591Z,3.15
2022-09-06T03:24:07.003Z,3.52
2022-09-06T03:25:38.402Z,3.28
2022-09-06T03:27:09.893Z,3.24
2022-09-06T03:28:41.386Z,3.14
2022-09-06T03:30:12.734Z,3.45
2022-09-06T03:31:44.212Z,3.11
2022-09-06T03:33:15.902Z,3.32
2022-09-06T03:34:47.305Z,3.62
2022-09-06T03:36:18.779Z,3.17
2022-09-06T03:37:50.242Z,3.33
2022-09-06T03:39:21.614Z,3.12
2022-09-06T03:40:53.018Z,3.51
2022-09-06T03:42:24.501Z,3.35
2022-09-06T03:43:55.983Z,3.88
2022-09-06T03:45:27.346Z,3.65
2022-09-06T03:46:58.764Z,3.46
2022-09-06T03:48:30.227Z,3.53
2022-09-06T03:50:11.389Z,3.58
2022-09-06T03:51:45.804Z,3.81
2022-09-06T03:53:17.169Z,4.02
2022-09-06T03:54:48.550Z,4.21
2022-09-06T03:56:19.920Z,3.90
2022-09-06T03:57:51.376Z,4.02
2022-09-06T03:59:22.883Z,4.10
2022-09-06T04:00:54.693Z,3.96
2022-09-06T04:02:26.179Z,4.14
2022-09-06T04:03:57.620Z,3.71
2022-09-06T04:05:29.066Z,3.37
2022-09-06T04:07:00.537Z,3.18
2022-09-06T04:08:31.950Z,3.50
2022-09-06T04:10:03.321Z,3.49
2022-09-06T04:11:34.712Z,3.45
2022-09-06T04:13:06.154Z,3.58
2022-09-06T04:14:37.694Z,3.93
2022-09-06T04:16:09.197Z,3.72
2022-09-06T04:17:40.747Z,3.55
2022-09-06T04:19:12.099Z,3.46
2022-09-06T04:20:43.484Z,3.49
2022-09-06T04:22:14.838Z,3.20
2022-09-06T04:23:46.234Z,3.45
2022-09-06T04:25:17.734Z,3.28
2022-09-06T04:26:49.190Z,3.14
2022-09-06T04:28:20.569Z,3.22
2022-09-06T04:29:52.233Z,2.72
2022-09-06T04:31:23.727Z,2.58
2022-09-06T04:32:55.176Z,2.59
2022-09-06T04:34:26.955Z,3.29
2022-09-06T04:35:58.410Z,2.74
2022-09-06T04:37:29.769Z,2.62
2022-09-06T04:39:01.157Z,3.00
2022-09-06T04:40:32.488Z,3.20
2022-09-06T04:42:04.028Z,2.88
2022-09-06T04:43:35.420Z,2.73
2022-09-06T04:45:06.817Z,2.71
2022-09-06T04:46:38.235Z,2.74
2022-09-06T04:48:09.579Z,2.75
2022-09-06T04:49:40.972Z,2.95
2022-09-06T04:51:12.371Z,2.60
2022-09-06T04:52:43.890Z,3.08
2022-09-06T04:54:15.358Z,2.80
2022-09-06T04:55:46.785Z,2.57
2022-09-06T04:57:18.239Z,2.74
2022-09-06T04:58:49.768Z,2.55
2022-09-06T05:00:21.175Z,2.73
2022-09-06T05:01:52.573Z,2.66
2022-09-06T05:03:24.105Z,2.82
2022-09-06T05:04:55.464Z,2.43
2022-09-06T05:06:26.829Z,2.39
2022-09-06T05:07:58.196Z,2.30
2022-09-06T05:09:29.554Z,2.38
2022-09-06T05:11:00.947Z,2.34
2022-09-06T05:12:32.365Z,2.22
2022-09-06T05:14:03.701Z,2.40
2022-09-06T05:15:35.065Z,2.56
2022-09-06T05:17:06.430Z,2.61
2022-09-06T05:18:37.907Z,2.44
2022-09-06T05:20:09.934Z,2.62
2022-09-06T05:21:41.328Z,2.53
2022-09-06T05:23:12.850Z,2.35
2022-09-06T05:24:44.337Z,2.56
2022-09-06T05:26:15.865Z,2.52
2022-09-06T05:27:47.331Z,2.75
2022-09-06T05:29:18.840Z,2.67
2022-09-06T05:30:50.259Z,2.72
2022-09-06T05:32:21.624Z,2.30
2022-09-06T05:33:53.025Z,2.42
2022-09-06T05:35:24.532Z,2.31
2022-09-06T05:36:55.980Z,2.13
2022-09-06T05:38:29.685Z,2.34
2022-09-06T05:40:01.461Z,2.25
2022-09-06T05:41:33.001Z,2.18
2022-09-06T05:43:04.584Z,2.35
2022-09-06T05:44:46.593Z,2.12
2022-09-06T05:46:18.280Z,2.62
2022-09-06T05:47:49.837Z,2.39
2022-09-06T05:49:21.380Z,2.35
2022-09-06T05:50:52.973Z,2.23
2022-09-06T05:52:24.366Z,2.28
2022-09-06T05:53:55.794Z,2.17
2022-09-06T05:55:27.209Z,2.32
2022-09-06T05:56:58.713Z,1.99
2022-09-06T05:58:30.167Z,2.37
2022-09-06T06:00:01.617Z,2.48
2022-09-06T06:01:38.099Z,2.32
2022-09-06T06:03:09.566Z,2.23
2022-09-06T06:04:46.012Z,2.48
2022-09-06T06:06:17.808Z,2.20
2022-09-06T06:07:49.352Z,2.29
2022-09-06T06:09:20.827Z,2.45
2022-09-06T06:10:52.231Z,2.39
2022-09-06T06:12:24.069Z,2.32
2022-09-06T06:13:55.484Z,2.13
2022-09-06T06:15:26.830Z,2.22
2022-09-06T06:16:58.299Z,2.40
2022-09-06T06:18:29.896Z,2.16
2022-09-06T06:20:01.285Z,2.09
2022-09-06T06:21:32.962Z,2.62
2022-09-06T06:23:04.378Z,2.09
2022-09-06T06:24:35.795Z,2.12
2022-09-06T06:26:07.211Z,2.19
2022-09-06T06:27:38.678Z,2.11
2022-09-06T06:29:10.293Z,2.13
2022-09-06T06:30:41.870Z,2.28
2022-09-06T06:32:13.370Z,2.26
2022-09-06T06:33:44.994Z,2.45
2022-09-06T06:35:16.415Z,2.51
2022-09-06T06:36:47.808Z,2.39
2022-09-06T06:38:19.220Z,2.29
2022-09-06T06:39:50.928Z,2.28
2022-09-06T06:41:22.452Z,2.32
2022-09-06T06:42:53.848Z,2.31
2022-09-06T06:44:25.433Z,2.10
2022-09-06T06:45:56.946Z,2.71
2022-09-06T06:47:28.462Z,2.34
2022-09-06T06:48:59.874Z,2.25
2022-09-06T06:50:31.315Z,2.24
2022-09-06T06:52:02.737Z,1.93
2022-09-06T06:53:34.282Z,2.15
2022-09-06T06:55:05.648Z,2.13
2022-09-06T06:56:37.066Z,2.06
2022-09-06T06:58:08.533Z,2.01
2022-09-06T06:59:39.943Z,2.14
2022-09-06T07:01:11.427Z,2.15
2022-09-06T07:02:42.942Z,2.13
2022-09-06T07:04:14.443Z,2.33
2022-09-06T07:06:12.793Z,2.23
2022-09-06T07:07:44.569Z,2.11
2022-09-06T07:09:21.061Z,2.08
2022-09-06T07:10:53.372Z,2.06
2022-09-06T07:12:26.961Z,2.16
2022-09-06T07:13:58.410Z,2.13
2022-09-06T07:15:29.801Z,2.07
2022-09-06T07:17:01.157Z,2.15
2022-09-06T07:18:32.665Z,2.07
2022-09-06T07:21:42.684Z,1.94
2022-09-06T07:25:21.014Z,2.01
2022-09-06T07:28:54.596Z,1.98
2022-09-06T07:30:26.197Z,1.94
2022-09-06T07:32:12.459Z,1.99
2022-09-06T07:33:44.205Z,1.85
2022-09-06T07:35:15.584Z,1.88
2022-09-06T07:36:46.988Z,1.97
2022-09-06T07:38:18.412Z,1.74
2022-09-06T07:39:52.263Z,1.66
2022-09-06T07:41:28.696Z,1.65
2022-09-06T07:43:00.095Z,1.87
2022-09-06T07:44:31.586Z,1.80
2022-09-06T07:46:02.929Z,1.83
2022-09-06T07:47:58.135Z,1.88
2022-09-06T07:49:34.227Z,1.94
2022-09-06T07:51:06.392Z,2.06
2022-09-06T07:53:08.459Z,2.24
2022-09-06T07:54:42.709Z,1.77
2022-09-06T07:56:14.191Z,2.13
2022-09-06T07:57:45.642Z,1.70
2022-09-06T07:59:17.049Z,1.87
2022-09-06T08:00:48.577Z,1.73
2022-09-06T08:02:20.109Z,1.62
2022-09-06T08:03:51.657Z,1.68
2022-09-06T08:07:40.164Z,1.47
2022-09-06T08:09:12.046Z,1.50
2022-09-06T08:10:43.510Z,1.53
2022-09-06T08:12:15.040Z,1.56
2022-09-06T08:14:08.508Z,1.48
2022-09-06T08:15:41.674Z,1.41
2022-09-06T08:17:13.269Z,1.44
2022-09-06T08:18:44.788Z,1.43
2022-09-06T08:20:16.237Z,1.42
2022-09-06T08:21:47.864Z,1.40
2022-09-06T08:23:19.688Z,1.44
2022-09-06T08:24:51.153Z,1.37
2022-09-06T08:26:22.600Z,1.32
2022-09-06T08:27:54.194Z,1.30
2022-09-06T08:29:25.608Z,1.32
2022-09-06T08:30:56.994Z,1.32
2022-09-06T08:32:28.465Z,1.28
2022-09-06T08:34:00.355Z,1.39
2022-09-06T08:35:31.775Z,1.34
2022-09-06T08:37:03.159Z,1.25
2022-09-06T08:38:34.648Z,1.23
2022-09-06T08:40:06.683Z,1.13
2022-09-06T08:41:38.153Z,1.21
2022-09-06T08:43:09.552Z,1.23
2022-09-06T08:44:57.396Z,1.36
2022-09-06T08:46:29.620Z,1.08
2022-09-06T08:48:01.100Z,1.11
2022-09-06T08:49:32.539Z,1.10
2022-09-06T08:51:03.906Z,1.13
2022-09-06T08:52:35.453Z,1.24
2022-09-06T08:54:06.866Z,1.23
2022-09-06T08:55:38.302Z,1.02
2022-09-06T08:57:09.715Z,1.01
2022-09-06T08:58:41.193Z,1.03
2022-09-06T09:00:12.661Z,1.16
2022-09-06T09:01:44.222Z,0.95
2022-09-06T09:03:16.961Z,1.11
2022-09-06T09:04:48.692Z,1.05
2022-09-06T09:06:20.207Z,0.98
2022-09-06T09:07:51.619Z,0.87
2022-09-06T09:09:23.065Z,1.02
2022-09-06T09:10:54.487Z,0.97
2022-09-06T09:12:25.978Z,0.79
2022-09-06T09:13:57.570Z,0.88
2022-09-06T09:15:29.177Z,0.99
2022-09-06T09:17:05.883Z,0.96
2022-09-06T09:18:37.565Z,0.93
2022-09-06T09:20:14.238Z,1.00
2022-09-06T09:21:45.731Z,1.04
2022-09-06T09:23:17.264Z,1.01
2022-09-06T09:24:48.939Z,0.83
2022-09-06T09:26:20.518Z,0.87
2022-09-06T09:27:52.019Z,0.87
2022-09-06T09:29:28.049Z,1.07
2022-09-06T09:31:00.460Z,1.02
2022-09-06T09:32:31.995Z,1.13
2022-09-06T09:34:03.484Z,0.76
2022-09-06T09:35:35.018Z,0.77
2022-09-06T09:39:07.898Z,0.92
2022-09-06T09:40:39.431Z,0.98
2022-09-06T09:42:10.917Z,0.94
2022-09-06T09:43:42.395Z,0.90
2022-09-06T09:45:13.911Z,0.87
2022-09-06T09:46:45.441Z,0.98
2022-09-06T09:48:17.073Z,0.88
2022-09-06T09:49:48.841Z,0.80
2022-09-06T09:51:26.125Z,0.85
2022-09-06T09:53:03.407Z,0.85
2022-09-06T09:54:34.969Z,0.73
2022-09-06T09:56:06.438Z,0.85
2022-09-06T09:57:38.428Z,0.92
2022-09-06T09:59:09.899Z,0.82
2022-09-06T10:00:41.393Z,0.73
2022-09-06T10:02:13.012Z,0.67
2022-09-06T10:05:45.928Z,0.81
2022-09-06T10:07:17.470Z,0.86
2022-09-06T10:08:48.943Z,0.75
2022-09-06T10:10:20.435Z,0.82
2022-09-06T10:11:51.969Z,0.85
2022-09-06T10:13:23.372Z,0.80
2022-09-06T10:14:54.878Z,0.78
2022-09-06T10:16:26.406Z,0.76
2022-09-06T10:17:58.043Z,0.85
2022-09-06T10:19:34.814Z,0.82
2022-09-06T10:21:06.454Z,0.98
2022-09-06T10:22:37.885Z,1.00
2022-09-06T10:25:56.565Z,0.73
2022-09-06T10:27:28.012Z,0.79
2022-09-06T10:28:59.816Z,0.74
2022-09-06T10:30:31.447Z,0.70
2022-09-06T10:32:02.901Z,0.79
2022-09-06T10:33:39.393Z,0.76
2022-09-06T10:35:11.137Z,0.77
2022-09-06T10:36:43.106Z,0.64
2022-09-06T10:38:14.822Z,0.78
2022-09-06T10:39:46.747Z,0.87
2022-09-06T10:41:18.386Z,0.86
2022-09-06T10:42:49.985Z,0.81
2022-09-06T10:44:21.447Z,0.78
2022-09-06T10:45:52.902Z,0.94
2022-09-06T10:47:24.359Z,0.88
2022-09-06T10:48:55.911Z,0.73
2022-09-06T10:50:27.406Z,0.82
2022-09-06T10:52:09.659Z,0.83
2022-09-06T10:53:41.147Z,0.88
2022-09-06T10:55:12.633Z,0.97
2022-09-06T10:56:49.284Z,1.04
2022-09-06T10:58:21.277Z,0.80
2022-09-06T10:59:52.826Z,0.90
2022-09-06T11:01:24.444Z,0.94
2022-09-06T11:06:59.266Z,0.83
2022-09-06T11:08:46.769Z,0.82
2022-09-06T11:10:19.114Z,0.77
2022-09-06T11:11:50.705Z,0.72
2022-09-06T11:13:22.315Z,0.90
2022-09-06T11:14:53.829Z,0.85
2022-09-06T11:16:25.678Z,0.78
2022-09-06T11:17:57.362Z,0.84
2022-09-06T11:19:28.916Z,0.87
2022-09-06T11:21:00.481Z,0.70
2022-09-06T11:22:32.112Z,0.86
2022-09-06T11:24:03.794Z,0.83
2022-09-06T11:25:35.558Z,0.81
2022-09-06T11:27:07.149Z,0.92
2022-09-06T11:28:38.773Z,0.77
2022-09-06T11:30:10.329Z,0.82
2022-09-06T11:33:43.661Z,0.87
2022-09-06T11:35:15.327Z,0.87
2022-09-06T11:36:46.951Z,0.80
2022-09-06T11:38:18.615Z,0.85
2022-09-06T11:42:18.057Z,0.78
2022-09-06T11:43:50.419Z,0.85
2022-09-06T11:45:22.041Z,0.84
2022-09-06T11:46:53.768Z,1.05
2022-09-06T11:48:25.434Z,0.80
2022-09-06T11:49:57.055Z,0.85
2022-09-06T11:51:28.631Z,0.96
2022-09-06T11:53:00.246Z,1.03
2022-09-06T11:54:31.969Z,0.92
2022-09-06T11:56:03.601Z,0.77
2022-09-06T11:57:35.322Z,0.87
2022-09-06T11:59:07.059Z,0.90
2022-09-06T12:00:38.761Z,0.91
2022-09-06T12:02:10.425Z,1.11
2022-09-06T12:04:06.833Z,1.25
2022-09-06T12:05:39.713Z,1.16
2022-09-06T12:07:11.771Z,1.09
2022-09-06T12:08:43.370Z,1.05
2022-09-06T12:10:15.112Z,0.97
2022-09-06T12:11:46.757Z,1.09
2022-09-06T12:13:18.670Z,1.07
2022-09-06T12:14:50.355Z,1.06
2022-09-06T12:16:22.314Z,0.93
2022-09-06T12:17:54.002Z,0.96
2022-09-06T12:19:25.640Z,1.28
2022-09-06T12:20:57.269Z,1.00
2022-09-06T12:22:28.873Z,1.01
2022-09-06T12:24:00.681Z,0.98
2022-09-06T12:25:32.421Z,0.87
2022-09-06T12:27:04.045Z,1.04
2022-09-06T12:28:35.641Z,0.91
2022-09-06T12:30:07.273Z,1.01
2022-09-06T12:31:39.018Z,0.84
2022-09-06T12:33:10.707Z,0.84
2022-09-06T12:34:42.420Z,0.78
2022-09-06T12:36:14.038Z,0.85
2022-09-06T12:37:45.741Z,0.88
2022-09-06T12:39:17.416Z,1.00
2022-09-06T12:40:54.104Z,0.90
2022-09-06T12:42:25.775Z,0.83
2022-09-06T12:44:47.669Z,0.92
2022-09-06T12:46:19.477Z,0.94
2022-09-06T12:47:51.136Z,0.94
2022-09-06T12:49:22.769Z,1.04
2022-09-06T12:50:54.439Z,1.01
2022-09-06T12:52:26.084Z,1.09
2022-09-06T12:53:57.754Z,1.04
2022-09-06T12:55:29.351Z,0.92
2022-09-06T12:57:01.082Z,0.86
2022-09-06T12:58:32.813Z,0.99
2022-09-06T13:00:04.470Z,1.00
2022-09-06T13:01:36.229Z,1.03
2022-09-06T13:03:07.962Z,1.15
2022-09-06T13:04:39.612Z,0.90
2022-09-06T13:06:11.169Z,0.95
2022-09-06T13:07:42.813Z,0.80
2022-09-06T13:09:14.424Z,1.04
2022-09-06T13:10:46.028Z,1.05
2022-09-06T13:12:17.671Z,1.08
2022-09-06T13:13:49.459Z,1.00
2022-09-06T13:15:21.072Z,1.08
2022-09-06T13:16:52.628Z,1.17
2022-09-06T13:18:24.311Z,1.24
2022-09-06T13:19:55.896Z,1.15
2022-09-06T13:21:27.570Z,1.23
2022-09-06T13:22:59.172Z,1.22
2022-09-06T13:24:30.823Z,1.20
2022-09-06T13:26:02.401Z,1.29
2022-09-06T13:27:33.973Z,1.17
2022-09-06T13:29:05.550Z,1.19
2022-09-06T13:30:37.210Z,1.27
2022-09-06T13:32:08.733Z,1.23
2022-09-06T13:33:40.334Z,1.23
2022-09-06T13:35:11.867Z,1.30
2022-09-06T13:36:43.428Z,1.08
2022-09-06T13:38:15.183Z,1.15
2022-09-06T13:39:46.991Z,1.19
2022-09-06T13:41:18.590Z,1.27
2022-09-06T13:42:50.152Z,1.19
2022-09-06T13:44:21.684Z,1.18
2022-09-06T13:45:53.270Z,1.40
2022-09-06T13:47:24.884Z,1.25
2022-09-06T13:48:56.445Z,1.11
2022-09-06T13:50:27.998Z,1.17
2022-09-06T13:51:59.542Z,1.11
2022-09-06T13:53:31.073Z,1.28
2022-09-06T13:55:02.634Z,1.19
2022-09-06T13:56:34.306Z,1.08
2022-09-06T13:58:05.823Z,1.20
2022-09-06T13:59:37.403Z,1.36
2022-09-06T14:01:09.059Z,1.28
2022-09-06T14:02:40.754Z,1.36
2022-09-06T14:04:12.365Z,1.25
2022-09-06T14:05:44.007Z,1.50
2022-09-06T14:07:15.656Z,1.22
2022-09-06T14:09:06.309Z,1.20
2022-09-06T14:10:38.446Z,1.38
2022-09-06T14:12:10.096Z,1.28
2022-09-06T14:13:41.650Z,1.36
2022-09-06T14:15:18.204Z,1.32
2022-09-06T14:16:49.785Z,1.18
2022-09-06T14:18:21.317Z,1.31
2022-09-06T14:19:52.861Z,1.28
2022-09-06T14:21:24.383Z,1.21
2022-09-06T14:22:56.073Z,1.38
2022-09-06T14:24:27.706Z,1.33
2022-09-06T14:25:59.338Z,1.44
2022-09-06T14:27:32.067Z,1.47
2022-09-06T14:29:03.792Z,1.23
2022-09-06T14:30:35.339Z,1.29
2022-09-06T14:32:06.908Z,1.27
2022-09-06T14:33:38.461Z,1.30
2022-09-06T14:35:10.099Z,1.31
2022-09-06T14:36:41.643Z,1.32
2022-09-06T14:38:13.175Z,1.38
2022-09-06T14:39:44.837Z,1.23
2022-09-06T14:41:16.430Z,1.23
2022-09-06T14:42:50.568Z,1.18
2022-09-06T14:44:22.358Z,1.20
2022-09-06T14:45:53.972Z,1.33
2022-09-06T14:47:25.573Z,1.43
2022-09-06T14:48:57.119Z,1.25
2022-09-06T14:50:28.686Z,1.32
2022-09-06T14:52:00.281Z,1.60
2022-09-06T14:53:40.373Z,1.42
2022-09-06T14:55:12.891Z,1.66
2022-09-06T14:56:44.471Z,1.71
2022-09-06T14:58:15.998Z,2.01
2022-09-06T14:59:47.665Z,1.74
2022-09-06T15:01:19.315Z,1.97
2022-09-06T15:02:51.067Z,1.85
2022-09-06T15:04:22.671Z,1.84
2022-09-06T15:05:54.264Z,1.65
2022-09-06T15:07:25.853Z,1.68
2022-09-06T15:08:59.442Z,1.63
2022-09-06T15:10:31.250Z,1.68
2022-09-06T15:12:02.774Z,1.63
2022-09-06T15:13:34.313Z,1.85
2022-09-06T15:15:05.839Z,1.86
2022-09-06T15:16:37.479Z,1.70
2022-09-06T15:18:09.054Z,1.75
2022-09-06T15:19:40.731Z,1.63
2022-09-06T15:21:12.250Z,1.67
2022-09-06T15:22:43.825Z,1.96
2022-09-06T15:24:15.388Z,1.67
2022-09-06T15:25:46.893Z,1.82
2022-09-06T15:27:23.475Z,1.73
2022-09-06T15:28:55.077Z,1.83
2022-09-06T15:30:26.655Z,1.70
2022-09-06T15:31:58.306Z,1.67
2022-09-06T15:33:31.060Z,1.66
2022-09-06T15:35:04.836Z,1.85
2022-09-06T15:36:36.557Z,1.77
2022-09-06T15:38:08.074Z,1.94
2022-09-06T15:39:39.684Z,1.59
2022-09-06T15:41:11.234Z,1.62
2022-09-06T15:42:42.919Z,1.59
2022-09-06T15:44:14.479Z,1.65
2022-09-06T15:45:46.040Z,1.63
2022-09-06T15:47:17.652Z,1.93
2022-09-06T15:48:49.199Z,1.88
2022-09-06T15:50:40.611Z,1.68
2022-09-06T15:52:21.720Z,2.60
2022-09-06T15:53:53.254Z,2.88
2022-09-06T15:55:54.691Z,2.98
2022-09-06T15:57:26.231Z,2.99
2022-09-06T15:58:57.789Z,3.06
2022-09-06T16:00:29.333Z,3.07
2022-09-06T16:02:00.907Z,3.15
2022-09-06T16:03:32.407Z,2.70
2022-09-06T16:05:04.050Z,2.76
2022-09-06T16:06:35.673Z,2.84
2022-09-06T16:08:07.254Z,2.76
2022-09-06T16:09:38.797Z,2.64
2022-09-06T16:11:10.329Z,2.25
2022-09-06T16:12:41.880Z,2.42
2022-09-06T16:14:13.508Z,2.24
2022-09-06T16:15:45.130Z,1.84
2022-09-06T16:17:16.779Z,2.02
2022-09-06T16:18:48.320Z,2.42
2022-09-06T16:20:19.906Z,2.36
2022-09-06T16:21:51.470Z,2.66
2022-09-06T16:23:23.044Z,2.31
2022-09-06T16:24:54.813Z,2.34
2022-09-06T16:26:26.375Z,2.15
2022-09-06T16:27:57.920Z,2.30
2022-09-06T16:29:34.638Z,2.41
2022-09-06T16:31:06.239Z,2.14
2022-09-06T16:32:37.979Z,1.80
2022-09-06T16:34:09.770Z,1.90
2022-09-06T16:35:41.346Z,1.97
2022-09-06T16:37:12.936Z,1.71
2022-09-06T16:38:44.589Z,1.63
2022-09-06T16:40:16.236Z,1.64
2022-09-06T16:41:47.867Z,1.70
2022-09-06T16:43:19.500Z,1.85
2022-09-06T16:44:51.285Z,1.72
2022-09-06T16:46:23.138Z,1.51
2022-09-06T16:47:54.757Z,1.39
2022-09-06T16:49:26.386Z,1.48
2022-09-06T16:50:57.961Z,1.90
2022-09-06T16:52:29.521Z,1.55
2022-09-06T16:54:01.175Z,1.43
2022-09-06T16:55:33.131Z,1.67
2022-09-06T16:57:04.690Z,1.58
2022-09-06T16:58:36.324Z,1.55
2022-09-06T17:00:07.950Z,1.56
2022-09-06T17:01:39.620Z,1.70
2022-09-06T17:03:11.266Z,1.66
2022-09-06T17:04:43.078Z,1.56
2022-09-06T17:06:14.659Z,1.48
2022-09-06T17:07:46.350Z,1.57
2022-09-06T17:09:17.910Z,1.54
2022-09-06T17:10:49.811Z,1.63
2022-09-06T17:12:21.431Z,1.58
2022-09-06T17:13:53.058Z,1.72
2022-09-06T17:15:24.788Z,1.63
2022-09-06T17:16:56.457Z,1.68
2022-09-06T17:18:28.230Z,1.52
2022-09-06T17:19:59.940Z,1.48
2022-09-06T17:21:31.494Z,1.67
2022-09-06T17:23:03.077Z,1.70
2022-09-06T17:24:34.655Z,1.57
2022-09-06T17:26:06.335Z,1.60
2022-09-06T17:27:38.023Z,1.50
2022-09-06T17:29:09.632Z,1.89
2022-09-06T17:30:41.368Z,1.74
2022-09-06T17:32:12.941Z,1.71
2022-09-06T17:33:44.481Z,1.71
2022-09-06T17:35:16.064Z,1.78
2022-09-06T17:36:47.632Z,2.41
2022-09-06T17:38:19.175Z,2.09
2022-09-06T17:39:50.772Z,2.05
2022-09-06T17:41:22.413Z,2.25
2022-09-06T17:42:54.034Z,1.95
2022-09-06T17:44:25.586Z,1.82
2022-09-06T17:45:57.317Z,1.73
2022-09-06T17:47:28.880Z,1.79
2022-09-06T17:49:00.462Z,1.67
2022-09-06T17:50:32.077Z,1.89
2022-09-06T17:52:03.651Z,1.74
2022-09-06T17:53:35.196Z,1.76
2022-09-06T17:55:06.707Z,1.66
2022-09-06T17:56:38.411Z,1.66
2022-09-06T17:58:10.313Z,1.88
2022-09-06T17:59:41.813Z,2.04
2022-09-06T18:01:13.359Z,1.89
2022-09-06T18:02:44.899Z,1.73
2022-09-06T18:04:16.518Z,1.77
2022-09-06T18:05:49.595Z,2.13
2022-09-06T18:07:21.146Z,1.85
2022-09-06T18:08:52.679Z,1.83
2022-09-06T18:10:24.153Z,1.81
2022-09-06T18:11:55.772Z,1.90
2022-09-06T18:13:27.331Z,2.04
2022-09-06T18:14:58.817Z,2.26
2022-09-06T18:16:30.343Z,1.75
2022-09-06T18:18:01.997Z,1.82
2022-09-06T18:19:33.531Z,1.82
2022-09-06T18:21:04.975Z,1.89
2022-09-06T18:22:36.525Z,1.91
2022-09-06T18:24:09.249Z,1.88
2022-09-06T18:25:40.738Z,1.91
2022-09-06T18:27:12.230Z,1.85
2022-09-06T18:28:43.790Z,1.70
2022-09-06T18:30:15.288Z,1.63
2022-09-06T18:31:46.951Z,1.59
2022-09-06T18:33:18.479Z,1.59
2022-09-06T18:34:50.512Z,1.77
2022-09-06T18:36:22.069Z,1.73
2022-09-06T18:37:53.570Z,1.72
2022-09-06T18:39:25.057Z,1.58
2022-09-06T18:40:56.635Z,1.67
2022-09-06T18:42:28.140Z,1.90
2022-09-06T18:43:59.597Z,1.76
2022-09-06T18:45:31.132Z,1.68
2022-09-06T18:47:02.790Z,1.69
2022-09-06T18:48:34.338Z,1.79
2022-09-06T18:50:05.885Z,2.17
2022-09-06T18:51:37.485Z,1.95
2022-09-06T18:53:09.065Z,1.92
2022-09-06T18:54:40.619Z,1.90
2022-09-06T18:56:12.137Z,1.91
2022-09-06T18:57:43.601Z,2.06
2022-09-06T18:59:15.291Z,2.44
2022-09-06T19:00:46.859Z,2.15
2022-09-06T19:02:18.606Z,2.40
2022-09-06T19:03:50.133Z,2.28
2022-09-06T19:05:21.636Z,2.02
2022-09-06T19:06:53.200Z,2.46
2022-09-06T19:08:24.672Z,2.71
2022-09-06T19:09:56.241Z,2.63
2022-09-06T19:11:27.731Z,2.30
2022-09-06T19:12:59.146Z,2.48
2022-09-06T19:14:30.663Z,2.88
2022-09-06T19:16:07.281Z,2.74
2022-09-06T19:17:38.876Z,2.87
2022-09-06T19:19:10.342Z,2.49
2022-09-06T19:20:41.849Z,2.61
2022-09-06T19:22:13.300Z,2.51
2022-09-06T19:23:44.781Z,2.78
2022-09-06T19:25:16.609Z,3.02
2022-09-06T19:26:48.124Z,2.73
2022-09-06T19:28:19.649Z,2.68
2022-09-06T19:29:51.158Z,2.68
2022-09-06T19:31:22.636Z,2.63
2022-09-06T19:32:54.342Z,2.84
2022-09-06T19:34:25.943Z,2.83
2022-09-06T19:36:10.861Z,3.05
2022-09-06T19:37:43.313Z,3.04
2022-09-06T19:39:14.708Z,2.92
2022-09-06T19:40:46.269Z,3.12
2022-09-06T19:42:17.744Z,3.23
2022-09-06T19:43:49.271Z,3.46
2022-09-06T19:45:20.670Z,3.41
2022-09-06T19:46:52.199Z,3.53
2022-09-06T19:48:28.878Z,3.35
2022-09-06T19:50:00.460Z,3.38
2022-09-06T19:51:31.888Z,3.48
2022-09-06T19:53:07.077Z,3.62
2022-09-06T19:54:38.764Z,3.82
2022-09-06T19:56:10.351Z,3.42
2022-09-06T19:57:41.857Z,3.06
2022-09-06T19:59:23.512Z,3.15
2022-09-06T20:00:56.375Z,3.59
2022-09-06T20:02:27.870Z,4.06
2022-09-06T20:03:59.351Z,4.20
2022-09-06T20:05:30.808Z,3.88
2022-09-06T20:07:02.270Z,4.01
2022-09-06T20:08:33.692Z,3.66
2022-09-06T20:10:05.173Z,3.62
2022-09-06T20:11:36.703Z,3.29
2022-09-06T20:13:08.210Z,3.30
2022-09-06T20:14:39.713Z,3.04
2022-09-06T20:16:11.215Z,3.06
2022-09-06T20:17:42.844Z,3.25
2022-09-06T20:19:14.291Z,3.14
2022-09-06T20:20:45.796Z,3.15
2022-09-06T20:22:17.268Z,3.40
2022-09-06T20:23:48.765Z,3.02
2022-09-06T20:25:20.240Z,3.20
2022-09-06T20:26:51.771Z,3.07
2022-09-06T20:28:23.345Z,3.09
2022-09-06T20:29:54.816Z,2.94
2022-09-06T20:31:26.324Z,2.83
2022-09-06T20:32:57.767Z,3.04
2022-09-06T20:34:29.193Z,2.88
2022-09-06T20:36:00.611Z,2.80
2022-09-06T20:37:32.040Z,2.64
2022-09-06T20:39:03.493Z,2.72
2022-09-06T20:40:36.059Z,2.91
2022-09-06T20:42:07.547Z,2.66
2022-09-06T20:43:38.992Z,2.71
2022-09-06T20:45:10.676Z,2.51
2022-09-06T20:46:42.329Z,2.79
2022-09-06T20:48:13.787Z,2.65
2022-09-06T20:49:45.273Z,2.96